sensor_id;sensor_type;location;lat;lon;timestamp;P1;durP1;ratioP1;P2;durP2;ratioP2
4533;SDS011;2279;51.448;7.306;2023-02-04T00:00:10;24.97;;;4.53;;
4533;SDS011;2279;51.448;7.306;2023-02-04T00:02:37;19.20;;;3.73;;
4533;SDS011;2279;51.448;7.306;2023-02-04T00:05:03;25.20;;;4.15;;
4533;SDS011;2279;51.448;7.306;2023-02-04T00:07:29;20.88;;;3.25;;
4533;SDS011;2279;51.448;7.306;2023-02-04T00:09:55;16.23;;;3.80;;
4533;SDS011;2279;51.448;7.306;2023-02-04T00:12:21;17.07;;;4.50;;
4533;SDS011;2279;51.448;7.306;2023-02-04T00:14:47;15.20;;;4.23;;
4533;SDS011;2279;51.448;7.306;2023-02-04T00:17:13;13.17;;;4.23;;
4533;SDS011;2279;51.448;7.306;2023-02-04T00:19:39;30.03;;;5.33;;
4533;SDS011;2279;51.448;7.306;2023-02-04T00:22:05;36.60;;;11.90;;
4533;SDS011;2279;51.448;7.306;2023-02-04T00:24:32;23.92;;;5.95;;
4533;SDS011;2279;51.448;7.306;2023-02-04T00:26:58;15.83;;;4.77;;
4533;SDS011;2279;51.448;7.306;2023-02-04T00:29:24;22.27;;;4.93;;
4533;SDS011;2279;51.448;7.306;2023-02-04T00:31:50;22.23;;;4.83;;
4533;SDS011;2279;51.448;7.306;2023-02-04T00:34:16;20.70;;;3.43;;
4533;SDS011;2279;51.448;7.306;2023-02-04T00:36:45;16.43;;;5.83;;
4533;SDS011;2279;51.448;7.306;2023-02-04T00:39:11;22.10;;;3.90;;
4533;SDS011;2279;51.448;7.306;2023-02-04T00:41:37;19.07;;;4.27;;
4533;SDS011;2279;51.448;7.306;2023-02-04T00:44:03;22.40;;;5.00;;
4533;SDS011;2279;51.448;7.306;2023-02-04T00:46:29;21.53;;;4.40;;
4533;SDS011;2279;51.448;7.306;2023-02-04T00:48:55;23.27;;;4.23;;
4533;SDS011;2279;51.448;7.306;2023-02-04T00:51:21;21.63;;;4.97;;
4533;SDS011;2279;51.448;7.306;2023-02-04T00:53:47;26.90;;;4.73;;
4533;SDS011;2279;51.448;7.306;2023-02-04T00:56:13;20.00;;;5.43;;
4533;SDS011;2279;51.448;7.306;2023-02-04T00:58:39;30.97;;;4.23;;
4533;SDS011;2279;51.448;7.306;2023-02-04T01:01:05;21.63;;;5.30;;
4533;SDS011;2279;51.448;7.306;2023-02-04T01:03:30;21.23;;;4.13;;
4533;SDS011;2279;51.448;7.306;2023-02-04T01:05:56;15.43;;;4.60;;
4533;SDS011;2279;51.448;7.306;2023-02-04T01:08:22;22.60;;;4.53;;
4533;SDS011;2279;51.448;7.306;2023-02-04T01:10:48;22.90;;;4.73;;
4533;SDS011;2279;51.448;7.306;2023-02-04T01:13:14;25.37;;;4.93;;
4533;SDS011;2279;51.448;7.306;2023-02-04T01:15:40;27.33;;;5.00;;
4533;SDS011;2279;51.448;7.306;2023-02-04T01:18:06;10.53;;;4.70;;
4533;SDS011;2279;51.448;7.306;2023-02-04T01:20:32;17.50;;;4.10;;
4533;SDS011;2279;51.448;7.306;2023-02-04T01:22:58;17.10;;;3.43;;
4533;SDS011;2279;51.448;7.306;2023-02-04T01:25:24;17.80;;;4.10;;
4533;SDS011;2279;51.448;7.306;2023-02-04T01:27:50;17.13;;;4.53;;
4533;SDS011;2279;51.448;7.306;2023-02-04T01:30:16;17.40;;;3.73;;
4533;SDS011;2279;51.448;7.306;2023-02-04T01:32:43;33.80;;;5.20;;
4533;SDS011;2279;51.448;7.306;2023-02-04T01:35:09;21.87;;;5.27;;
4533;SDS011;2279;51.448;7.306;2023-02-04T01:37:35;19.07;;;4.27;;
4533;SDS011;2279;51.448;7.306;2023-02-04T01:40:01;19.23;;;4.10;;
4533;SDS011;2279;51.448;7.306;2023-02-04T01:42:27;27.13;;;5.00;;
4533;SDS011;2279;51.448;7.306;2023-02-04T01:44:53;18.37;;;4.70;;
4533;SDS011;2279;51.448;7.306;2023-02-04T01:47:19;15.43;;;3.70;;
4533;SDS011;2279;51.448;7.306;2023-02-04T01:49:46;25.23;;;5.37;;
4533;SDS011;2279;51.448;7.306;2023-02-04T01:52:15;30.30;;;4.90;;
4533;SDS011;2279;51.448;7.306;2023-02-04T01:54:42;18.33;;;5.60;;
4533;SDS011;2279;51.448;7.306;2023-02-04T01:57:08;23.70;;;5.00;;
4533;SDS011;2279;51.448;7.306;2023-02-04T01:59:38;19.70;;;4.03;;
4533;SDS011;2279;51.448;7.306;2023-02-04T02:02:52;24.43;;;4.60;;
4533;SDS011;2279;51.448;7.306;2023-02-04T02:04:52;22.30;;;4.53;;
4533;SDS011;2279;51.448;7.306;2023-02-04T02:07:18;21.73;;;4.43;;
4533;SDS011;2279;51.448;7.306;2023-02-04T02:09:44;14.17;;;3.97;;
4533;SDS011;2279;51.448;7.306;2023-02-04T02:12:10;33.40;;;4.30;;
4533;SDS011;2279;51.448;7.306;2023-02-04T02:14:36;18.40;;;4.63;;
4533;SDS011;2279;51.448;7.306;2023-02-04T02:17:02;26.30;;;4.33;;
4533;SDS011;2279;51.448;7.306;2023-02-04T02:19:30;23.73;;;4.90;;
4533;SDS011;2279;51.448;7.306;2023-02-04T02:22:02;25.73;;;6.10;;
4533;SDS011;2279;51.448;7.306;2023-02-04T02:26:55;29.13;;;4.77;;
4533;SDS011;2279;51.448;7.306;2023-02-04T02:29:22;24.53;;;4.10;;
4533;SDS011;2279;51.448;7.306;2023-02-04T02:31:48;28.77;;;4.87;;
4533;SDS011;2279;51.448;7.306;2023-02-04T02:34:14;31.73;;;4.40;;
4533;SDS011;2279;51.448;7.306;2023-02-04T02:36:40;19.23;;;4.63;;
4533;SDS011;2279;51.448;7.306;2023-02-04T02:39:07;26.17;;;4.50;;
4533;SDS011;2279;51.448;7.306;2023-02-04T02:41:33;15.17;;;4.20;;
4533;SDS011;2279;51.448;7.306;2023-02-04T02:44:00;23.40;;;6.30;;
4533;SDS011;2279;51.448;7.306;2023-02-04T02:46:26;20.10;;;4.50;;
4533;SDS011;2279;51.448;7.306;2023-02-04T02:48:52;25.73;;;4.77;;
4533;SDS011;2279;51.448;7.306;2023-02-04T02:51:18;23.67;;;4.83;;
4533;SDS011;2279;51.448;7.306;2023-02-04T02:53:44;18.83;;;4.87;;
4533;SDS011;2279;51.448;7.306;2023-02-04T02:56:10;10.97;;;3.90;;
4533;SDS011;2279;51.448;7.306;2023-02-04T02:58:36;30.00;;;4.67;;
4533;SDS011;2279;51.448;7.306;2023-02-04T03:01:06;22.00;;;4.20;;
4533;SDS011;2279;51.448;7.306;2023-02-04T03:03:34;23.23;;;4.53;;
4533;SDS011;2279;51.448;7.306;2023-02-04T03:06:12;11.23;;;4.20;;
4533;SDS011;2279;51.448;7.306;2023-02-04T03:11:49;27.63;;;5.00;;
4533;SDS011;2279;51.448;7.306;2023-02-04T03:14:15;22.23;;;3.70;;
4533;SDS011;2279;51.448;7.306;2023-02-04T03:16:41;19.70;;;4.10;;
4533;SDS011;2279;51.448;7.306;2023-02-04T03:19:08;13.63;;;3.57;;
4533;SDS011;2279;51.448;7.306;2023-02-04T03:21:34;22.37;;;4.83;;
4533;SDS011;2279;51.448;7.306;2023-02-04T03:24:00;28.20;;;4.83;;
4533;SDS011;2279;51.448;7.306;2023-02-04T03:26:26;19.83;;;3.33;;
4533;SDS011;2279;51.448;7.306;2023-02-04T03:28:53;31.20;;;3.93;;
4533;SDS011;2279;51.448;7.306;2023-02-04T03:31:19;19.77;;;6.03;;
4533;SDS011;2279;51.448;7.306;2023-02-04T03:33:45;19.08;;;3.10;;
4533;SDS011;2279;51.448;7.306;2023-02-04T03:36:11;17.13;;;6.47;;
4533;SDS011;2279;51.448;7.306;2023-02-04T03:38:37;25.97;;;4.13;;
4533;SDS011;2279;51.448;7.306;2023-02-04T03:41:03;18.10;;;4.30;;
4533;SDS011;2279;51.448;7.306;2023-02-04T03:43:29;16.20;;;4.30;;
4533;SDS011;2279;51.448;7.306;2023-02-04T03:45:55;17.20;;;4.10;;
4533;SDS011;2279;51.448;7.306;2023-02-04T03:48:21;29.03;;;5.23;;
4533;SDS011;2279;51.448;7.306;2023-02-04T03:50:47;17.43;;;7.43;;
4533;SDS011;2279;51.448;7.306;2023-02-04T03:53:13;15.77;;;4.57;;
4533;SDS011;2279;51.448;7.306;2023-02-04T03:55:39;25.13;;;4.40;;
4533;SDS011;2279;51.448;7.306;2023-02-04T03:58:05;19.10;;;5.07;;
4533;SDS011;2279;51.448;7.306;2023-02-04T04:00:31;19.87;;;3.90;;
4533;SDS011;2279;51.448;7.306;2023-02-04T04:02:57;20.13;;;4.50;;
4533;SDS011;2279;51.448;7.306;2023-02-04T04:05:24;22.45;;;4.13;;
4533;SDS011;2279;51.448;7.306;2023-02-04T04:07:51;34.30;;;5.57;;
4533;SDS011;2279;51.448;7.306;2023-02-04T04:10:17;15.90;;;4.27;;
4533;SDS011;2279;51.448;7.306;2023-02-04T04:12:43;13.93;;;4.70;;
4533;SDS011;2279;51.448;7.306;2023-02-04T04:15:09;23.53;;;4.77;;
4533;SDS011;2279;51.448;7.306;2023-02-04T04:17:35;21.83;;;4.90;;
4533;SDS011;2279;51.448;7.306;2023-02-04T04:20:01;18.50;;;5.00;;
4533;SDS011;2279;51.448;7.306;2023-02-04T04:22:27;25.38;;;4.65;;
4533;SDS011;2279;51.448;7.306;2023-02-04T04:24:53;23.50;;;4.67;;
4533;SDS011;2279;51.448;7.306;2023-02-04T04:27:19;25.80;;;4.70;;
4533;SDS011;2279;51.448;7.306;2023-02-04T04:29:45;19.67;;;3.70;;
4533;SDS011;2279;51.448;7.306;2023-02-04T04:32:11;25.07;;;6.10;;
4533;SDS011;2279;51.448;7.306;2023-02-04T04:34:37;19.77;;;5.40;;
4533;SDS011;2279;51.448;7.306;2023-02-04T04:37:03;22.73;;;4.90;;
4533;SDS011;2279;51.448;7.306;2023-02-04T04:39:29;17.30;;;3.60;;
4533;SDS011;2279;51.448;7.306;2023-02-04T04:41:55;25.40;;;4.90;;
4533;SDS011;2279;51.448;7.306;2023-02-04T04:44:21;19.03;;;3.77;;
4533;SDS011;2279;51.448;7.306;2023-02-04T04:46:47;30.23;;;4.07;;
4533;SDS011;2279;51.448;7.306;2023-02-04T04:49:13;15.93;;;3.27;;
4533;SDS011;2279;51.448;7.306;2023-02-04T04:51:40;22.40;;;4.07;;
4533;SDS011;2279;51.448;7.306;2023-02-04T04:54:06;19.63;;;3.93;;
4533;SDS011;2279;51.448;7.306;2023-02-04T04:56:32;32.80;;;5.60;;
4533;SDS011;2279;51.448;7.306;2023-02-04T04:58:58;16.83;;;3.63;;
4533;SDS011;2279;51.448;7.306;2023-02-04T05:01:24;25.30;;;5.57;;
4533;SDS011;2279;51.448;7.306;2023-02-04T05:03:50;34.13;;;5.10;;
4533;SDS011;2279;51.448;7.306;2023-02-04T05:06:16;22.83;;;4.17;;
4533;SDS011;2279;51.448;7.306;2023-02-04T05:08:42;24.90;;;4.53;;
4533;SDS011;2279;51.448;7.306;2023-02-04T05:11:08;26.00;;;6.50;;
4533;SDS011;2279;51.448;7.306;2023-02-04T05:13:33;14.00;;;3.80;;
4533;SDS011;2279;51.448;7.306;2023-02-04T05:15:59;15.43;;;3.60;;
4533;SDS011;2279;51.448;7.306;2023-02-04T05:18:25;20.83;;;4.27;;
4533;SDS011;2279;51.448;7.306;2023-02-04T05:20:51;28.90;;;5.20;;
4533;SDS011;2279;51.448;7.306;2023-02-04T05:23:17;13.80;;;4.57;;
4533;SDS011;2279;51.448;7.306;2023-02-04T05:25:43;18.33;;;5.10;;
4533;SDS011;2279;51.448;7.306;2023-02-04T05:28:09;26.57;;;5.30;;
4533;SDS011;2279;51.448;7.306;2023-02-04T05:30:35;29.97;;;5.37;;
4533;SDS011;2279;51.448;7.306;2023-02-04T05:33:01;28.50;;;5.23;;
4533;SDS011;2279;51.448;7.306;2023-02-04T05:35:27;18.13;;;3.83;;
4533;SDS011;2279;51.448;7.306;2023-02-04T05:37:53;27.67;;;4.50;;
4533;SDS011;2279;51.448;7.306;2023-02-04T05:40:19;10.57;;;4.00;;
4533;SDS011;2279;51.448;7.306;2023-02-04T05:42:45;22.43;;;3.63;;
4533;SDS011;2279;51.448;7.306;2023-02-04T05:45:12;41.50;;;5.20;;
4533;SDS011;2279;51.448;7.306;2023-02-04T05:47:38;20.07;;;4.13;;
4533;SDS011;2279;51.448;7.306;2023-02-04T05:50:04;34.00;;;4.60;;
4533;SDS011;2279;51.448;7.306;2023-02-04T05:52:31;19.17;;;3.83;;
4533;SDS011;2279;51.448;7.306;2023-02-04T05:54:57;21.07;;;3.97;;
4533;SDS011;2279;51.448;7.306;2023-02-04T05:57:22;13.37;;;3.73;;
4533;SDS011;2279;51.448;7.306;2023-02-04T05:59:48;24.57;;;5.20;;
4533;SDS011;2279;51.448;7.306;2023-02-04T06:02:14;22.87;;;5.03;;
4533;SDS011;2279;51.448;7.306;2023-02-04T06:04:40;22.47;;;3.87;;
4533;SDS011;2279;51.448;7.306;2023-02-04T06:07:06;22.30;;;5.13;;
4533;SDS011;2279;51.448;7.306;2023-02-04T06:09:32;26.40;;;5.47;;
4533;SDS011;2279;51.448;7.306;2023-02-04T06:11:58;14.80;;;3.73;;
4533;SDS011;2279;51.448;7.306;2023-02-04T06:14:24;26.20;;;5.20;;
4533;SDS011;2279;51.448;7.306;2023-02-04T06:16:50;19.33;;;4.40;;
4533;SDS011;2279;51.448;7.306;2023-02-04T06:19:16;24.43;;;4.77;;
4533;SDS011;2279;51.448;7.306;2023-02-04T06:21:42;17.33;;;4.10;;
4533;SDS011;2279;51.448;7.306;2023-02-04T06:24:08;18.80;;;4.47;;
4533;SDS011;2279;51.448;7.306;2023-02-04T06:26:34;19.73;;;4.40;;
4533;SDS011;2279;51.448;7.306;2023-02-04T06:29:00;26.40;;;5.00;;
4533;SDS011;2279;51.448;7.306;2023-02-04T06:31:26;24.87;;;4.00;;
4533;SDS011;2279;51.448;7.306;2023-02-04T06:33:52;25.53;;;4.20;;
4533;SDS011;2279;51.448;7.306;2023-02-04T06:36:18;21.23;;;4.87;;
4533;SDS011;2279;51.448;7.306;2023-02-04T06:38:44;33.60;;;4.67;;
4533;SDS011;2279;51.448;7.306;2023-02-04T06:41:10;17.43;;;4.10;;
4533;SDS011;2279;51.448;7.306;2023-02-04T06:43:36;23.57;;;4.40;;
4533;SDS011;2279;51.448;7.306;2023-02-04T06:46:02;17.17;;;6.07;;
4533;SDS011;2279;51.448;7.306;2023-02-04T06:48:28;26.47;;;4.80;;
4533;SDS011;2279;51.448;7.306;2023-02-04T06:50:54;19.50;;;4.10;;
4533;SDS011;2279;51.448;7.306;2023-02-04T06:53:20;24.60;;;4.80;;
4533;SDS011;2279;51.448;7.306;2023-02-04T06:55:45;12.03;;;4.07;;
4533;SDS011;2279;51.448;7.306;2023-02-04T06:58:11;38.90;;;5.93;;
4533;SDS011;2279;51.448;7.306;2023-02-04T07:00:37;15.33;;;3.70;;
4533;SDS011;2279;51.448;7.306;2023-02-04T07:03:03;29.30;;;4.93;;
4533;SDS011;2279;51.448;7.306;2023-02-04T07:05:31;20.73;;;4.37;;
4533;SDS011;2279;51.448;7.306;2023-02-04T07:07:57;30.13;;;5.23;;
4533;SDS011;2279;51.448;7.306;2023-02-04T07:10:23;26.10;;;4.40;;
4533;SDS011;2279;51.448;7.306;2023-02-04T07:12:49;29.90;;;5.30;;
4533;SDS011;2279;51.448;7.306;2023-02-04T07:15:15;16.80;;;3.53;;
4533;SDS011;2279;51.448;7.306;2023-02-04T07:17:41;12.87;;;4.13;;
4533;SDS011;2279;51.448;7.306;2023-02-04T07:20:08;31.83;;;4.63;;
4533;SDS011;2279;51.448;7.306;2023-02-04T07:22:34;33.77;;;4.60;;
4533;SDS011;2279;51.448;7.306;2023-02-04T07:25:00;19.20;;;4.37;;
4533;SDS011;2279;51.448;7.306;2023-02-04T07:27:26;26.40;;;4.97;;
4533;SDS011;2279;51.448;7.306;2023-02-04T07:29:52;16.13;;;3.97;;
4533;SDS011;2279;51.448;7.306;2023-02-04T07:32:18;18.70;;;4.87;;
4533;SDS011;2279;51.448;7.306;2023-02-04T07:34:44;15.73;;;4.03;;
4533;SDS011;2279;51.448;7.306;2023-02-04T07:37:09;31.00;;;4.57;;
4533;SDS011;2279;51.448;7.306;2023-02-04T07:39:35;29.13;;;4.73;;
4533;SDS011;2279;51.448;7.306;2023-02-04T07:42:01;26.67;;;6.20;;
4533;SDS011;2279;51.448;7.306;2023-02-04T07:44:27;13.40;;;4.30;;
4533;SDS011;2279;51.448;7.306;2023-02-04T07:46:53;32.17;;;5.17;;
4533;SDS011;2279;51.448;7.306;2023-02-04T07:49:20;26.97;;;4.23;;
4533;SDS011;2279;51.448;7.306;2023-02-04T07:51:46;13.97;;;4.87;;
4533;SDS011;2279;51.448;7.306;2023-02-04T07:54:12;22.83;;;6.60;;
4533;SDS011;2279;51.448;7.306;2023-02-04T07:56:38;21.30;;;4.23;;
4533;SDS011;2279;51.448;7.306;2023-02-04T07:59:04;17.53;;;5.17;;
4533;SDS011;2279;51.448;7.306;2023-02-04T08:01:30;33.63;;;6.40;;
4533;SDS011;2279;51.448;7.306;2023-02-04T08:03:56;15.77;;;3.97;;
4533;SDS011;2279;51.448;7.306;2023-02-04T08:06:22;19.30;;;5.00;;
4533;SDS011;2279;51.448;7.306;2023-02-04T08:08:48;24.07;;;4.40;;
4533;SDS011;2279;51.448;7.306;2023-02-04T08:11:14;17.97;;;5.33;;
4533;SDS011;2279;51.448;7.306;2023-02-04T08:13:40;14.30;;;3.80;;
4533;SDS011;2279;51.448;7.306;2023-02-04T08:16:06;16.87;;;7.40;;
4533;SDS011;2279;51.448;7.306;2023-02-04T08:18:32;21.10;;;4.20;;
4533;SDS011;2279;51.448;7.306;2023-02-04T08:20:58;23.37;;;4.53;;
4533;SDS011;2279;51.448;7.306;2023-02-04T08:23:25;19.23;;;4.53;;
4533;SDS011;2279;51.448;7.306;2023-02-04T08:25:51;17.37;;;3.90;;
4533;SDS011;2279;51.448;7.306;2023-02-04T08:28:17;25.20;;;5.73;;
4533;SDS011;2279;51.448;7.306;2023-02-04T08:30:43;21.47;;;4.90;;
4533;SDS011;2279;51.448;7.306;2023-02-04T08:33:09;12.57;;;3.70;;
4533;SDS011;2279;51.448;7.306;2023-02-04T08:35:35;14.43;;;4.10;;
4533;SDS011;2279;51.448;7.306;2023-02-04T08:38:01;19.60;;;5.50;;
4533;SDS011;2279;51.448;7.306;2023-02-04T08:40:27;16.67;;;3.87;;
4533;SDS011;2279;51.448;7.306;2023-02-04T08:42:53;22.67;;;4.30;;
4533;SDS011;2279;51.448;7.306;2023-02-04T08:45:19;19.40;;;4.50;;
4533;SDS011;2279;51.448;7.306;2023-02-04T08:47:45;14.60;;;4.13;;
4533;SDS011;2279;51.448;7.306;2023-02-04T08:50:11;16.60;;;4.40;;
4533;SDS011;2279;51.448;7.306;2023-02-04T08:52:37;23.03;;;4.60;;
4533;SDS011;2279;51.448;7.306;2023-02-04T08:55:03;20.00;;;4.50;;
4533;SDS011;2279;51.448;7.306;2023-02-04T08:57:29;23.00;;;5.23;;
4533;SDS011;2279;51.448;7.306;2023-02-04T08:59:55;19.17;;;4.67;;
4533;SDS011;2279;51.448;7.306;2023-02-04T09:02:21;23.50;;;5.80;;
4533;SDS011;2279;51.448;7.306;2023-02-04T09:04:47;16.00;;;4.80;;
4533;SDS011;2279;51.448;7.306;2023-02-04T09:07:13;19.23;;;4.47;;
4533;SDS011;2279;51.448;7.306;2023-02-04T09:09:39;21.90;;;5.20;;
4533;SDS011;2279;51.448;7.306;2023-02-04T09:12:05;23.77;;;5.90;;
4533;SDS011;2279;51.448;7.306;2023-02-04T09:14:31;29.37;;;5.50;;
4533;SDS011;2279;51.448;7.306;2023-02-04T09:16:57;11.53;;;4.10;;
4533;SDS011;2279;51.448;7.306;2023-02-04T09:19:23;21.60;;;4.70;;
4533;SDS011;2279;51.448;7.306;2023-02-04T09:21:53;24.57;;;5.20;;
4533;SDS011;2279;51.448;7.306;2023-02-04T09:24:19;23.30;;;5.97;;
4533;SDS011;2279;51.448;7.306;2023-02-04T09:26:47;26.53;;;5.53;;
4533;SDS011;2279;51.448;7.306;2023-02-04T09:29:13;22.10;;;5.27;;
4533;SDS011;2279;51.448;7.306;2023-02-04T09:31:39;20.80;;;5.33;;
4533;SDS011;2279;51.448;7.306;2023-02-04T09:34:06;19.33;;;4.30;;
4533;SDS011;2279;51.448;7.306;2023-02-04T09:36:31;30.27;;;5.57;;
4533;SDS011;2279;51.448;7.306;2023-02-04T09:39:02;19.40;;;5.60;;
4533;SDS011;2279;51.448;7.306;2023-02-04T09:41:28;32.13;;;6.27;;
4533;SDS011;2279;51.448;7.306;2023-02-04T09:43:54;22.80;;;5.40;;
4533;SDS011;2279;51.448;7.306;2023-02-04T09:46:21;16.73;;;5.97;;
4533;SDS011;2279;51.448;7.306;2023-02-04T09:48:48;24.73;;;5.53;;
4533;SDS011;2279;51.448;7.306;2023-02-04T09:51:16;23.00;;;7.17;;
4533;SDS011;2279;51.448;7.306;2023-02-04T09:53:43;25.40;;;6.60;;
4533;SDS011;2279;51.448;7.306;2023-02-04T09:56:09;40.13;;;6.67;;
4533;SDS011;2279;51.448;7.306;2023-02-04T09:58:36;31.00;;;5.57;;
4533;SDS011;2279;51.448;7.306;2023-02-04T10:01:18;29.87;;;5.90;;
4533;SDS011;2279;51.448;7.306;2023-02-04T10:03:45;22.23;;;6.30;;
4533;SDS011;2279;51.448;7.306;2023-02-04T10:06:22;21.73;;;6.50;;
4533;SDS011;2279;51.448;7.306;2023-02-04T10:08:49;21.73;;;5.83;;
4533;SDS011;2279;51.448;7.306;2023-02-04T10:11:16;31.47;;;6.33;;
4533;SDS011;2279;51.448;7.306;2023-02-04T10:13:47;26.33;;;6.10;;
4533;SDS011;2279;51.448;7.306;2023-02-04T10:16:28;28.53;;;6.17;;
4533;SDS011;2279;51.448;7.306;2023-02-04T10:18:59;28.13;;;6.30;;
4533;SDS011;2279;51.448;7.306;2023-02-04T10:21:27;25.17;;;6.23;;
4533;SDS011;2279;51.448;7.306;2023-02-04T10:23:54;47.17;;;6.57;;
4533;SDS011;2279;51.448;7.306;2023-02-04T10:26:20;24.80;;;5.20;;
4533;SDS011;2279;51.448;7.306;2023-02-04T10:28:47;31.97;;;6.17;;
4533;SDS011;2279;51.448;7.306;2023-02-04T10:31:26;23.20;;;5.90;;
4533;SDS011;2279;51.448;7.306;2023-02-04T10:36:32;22.53;;;5.30;;
4533;SDS011;2279;51.448;7.306;2023-02-04T10:39:41;22.43;;;5.50;;
4533;SDS011;2279;51.448;7.306;2023-02-04T10:41:54;19.73;;;5.70;;
4533;SDS011;2279;51.448;7.306;2023-02-04T10:46:59;17.43;;;5.50;;
4533;SDS011;2279;51.448;7.306;2023-02-04T10:49:25;24.40;;;5.47;;
4533;SDS011;2279;51.448;7.306;2023-02-04T10:51:51;29.93;;;7.10;;
4533;SDS011;2279;51.448;7.306;2023-02-04T10:54:22;15.90;;;6.73;;
4533;SDS011;2279;51.448;7.306;2023-02-04T10:56:59;18.47;;;5.90;;
4533;SDS011;2279;51.448;7.306;2023-02-04T10:59:25;24.83;;;6.90;;
4533;SDS011;2279;51.448;7.306;2023-02-04T11:01:52;18.13;;;5.47;;
4533;SDS011;2279;51.448;7.306;2023-02-04T11:04:19;19.83;;;5.13;;
4533;SDS011;2279;51.448;7.306;2023-02-04T11:06:45;30.03;;;6.77;;
4533;SDS011;2279;51.448;7.306;2023-02-04T11:09:12;28.37;;;8.00;;
4533;SDS011;2279;51.448;7.306;2023-02-04T11:11:38;28.77;;;6.20;;
4533;SDS011;2279;51.448;7.306;2023-02-04T11:14:26;19.63;;;6.10;;
4533;SDS011;2279;51.448;7.306;2023-02-04T11:16:53;16.73;;;5.73;;
4533;SDS011;2279;51.448;7.306;2023-02-04T11:19:31;22.73;;;6.07;;
4533;SDS011;2279;51.448;7.306;2023-02-04T11:22:04;27.07;;;5.77;;
4533;SDS011;2279;51.448;7.306;2023-02-04T11:24:32;21.87;;;6.60;;
4533;SDS011;2279;51.448;7.306;2023-02-04T11:27:05;27.67;;;6.20;;
4533;SDS011;2279;51.448;7.306;2023-02-04T11:29:34;32.53;;;6.40;;
4533;SDS011;2279;51.448;7.306;2023-02-04T11:34:47;21.10;;;5.80;;
4533;SDS011;2279;51.448;7.306;2023-02-04T11:37:16;18.20;;;5.90;;
4533;SDS011;2279;51.448;7.306;2023-02-04T11:39:43;25.87;;;7.27;;
4533;SDS011;2279;51.448;7.306;2023-02-04T11:44:57;25.80;;;6.37;;
4533;SDS011;2279;51.448;7.306;2023-02-04T11:47:24;23.67;;;6.97;;
4533;SDS011;2279;51.448;7.306;2023-02-04T11:50:00;30.00;;;6.87;;
4533;SDS011;2279;51.448;7.306;2023-02-04T11:52:27;18.90;;;6.20;;
4533;SDS011;2279;51.448;7.306;2023-02-04T11:54:59;22.67;;;5.97;;
4533;SDS011;2279;51.448;7.306;2023-02-04T11:57:25;21.03;;;6.37;;
4533;SDS011;2279;51.448;7.306;2023-02-04T11:59:52;19.40;;;7.03;;
4533;SDS011;2279;51.448;7.306;2023-02-04T12:02:19;28.63;;;7.40;;
4533;SDS011;2279;51.448;7.306;2023-02-04T12:07:22;35.50;;;7.77;;
4533;SDS011;2279;51.448;7.306;2023-02-04T12:09:48;25.37;;;7.83;;
4533;SDS011;2279;51.448;7.306;2023-02-04T12:12:22;19.60;;;6.93;;
4533;SDS011;2279;51.448;7.306;2023-02-04T12:14:54;20.13;;;8.07;;
4533;SDS011;2279;51.448;7.306;2023-02-04T12:17:21;24.70;;;7.77;;
4533;SDS011;2279;51.448;7.306;2023-02-04T12:19:47;21.13;;;8.00;;
4533;SDS011;2279;51.448;7.306;2023-02-04T12:22:13;30.17;;;9.70;;
4533;SDS011;2279;51.448;7.306;2023-02-04T12:24:39;34.23;;;7.90;;
4533;SDS011;2279;51.448;7.306;2023-02-04T12:27:05;38.87;;;8.73;;
4533;SDS011;2279;51.448;7.306;2023-02-04T12:29:31;26.57;;;8.10;;
4533;SDS011;2279;51.448;7.306;2023-02-04T12:31:57;30.83;;;8.50;;
4533;SDS011;2279;51.448;7.306;2023-02-04T12:34:23;27.80;;;8.90;;
4533;SDS011;2279;51.448;7.306;2023-02-04T12:36:49;23.73;;;8.70;;
4533;SDS011;2279;51.448;7.306;2023-02-04T12:39:15;21.90;;;9.60;;
4533;SDS011;2279;51.448;7.306;2023-02-04T12:41:41;30.20;;;10.67;;
4533;SDS011;2279;51.448;7.306;2023-02-04T12:44:07;25.87;;;10.43;;
4533;SDS011;2279;51.448;7.306;2023-02-04T12:46:33;31.03;;;10.60;;
4533;SDS011;2279;51.448;7.306;2023-02-04T12:48:59;29.27;;;9.87;;
4533;SDS011;2279;51.448;7.306;2023-02-04T12:51:25;23.83;;;9.27;;
4533;SDS011;2279;51.448;7.306;2023-02-04T12:53:51;19.90;;;9.47;;
4533;SDS011;2279;51.448;7.306;2023-02-04T12:56:17;32.03;;;9.83;;
4533;SDS011;2279;51.448;7.306;2023-02-04T12:58:44;25.20;;;10.10;;
4533;SDS011;2279;51.448;7.306;2023-02-04T13:01:10;18.03;;;8.97;;
4533;SDS011;2279;51.448;7.306;2023-02-04T13:03:36;23.53;;;8.40;;
4533;SDS011;2279;51.448;7.306;2023-02-04T13:06:02;21.37;;;9.30;;
4533;SDS011;2279;51.448;7.306;2023-02-04T13:08:28;25.87;;;8.37;;
4533;SDS011;2279;51.448;7.306;2023-02-04T13:10:54;25.83;;;8.57;;
4533;SDS011;2279;51.448;7.306;2023-02-04T13:13:20;33.63;;;8.40;;
4533;SDS011;2279;51.448;7.306;2023-02-04T13:15:46;22.37;;;8.60;;
4533;SDS011;2279;51.448;7.306;2023-02-04T13:18:13;22.33;;;8.63;;
4533;SDS011;2279;51.448;7.306;2023-02-04T13:20:39;23.47;;;7.20;;
4533;SDS011;2279;51.448;7.306;2023-02-04T13:23:06;25.83;;;9.43;;
4533;SDS011;2279;51.448;7.306;2023-02-04T13:25:32;25.70;;;7.37;;
4533;SDS011;2279;51.448;7.306;2023-02-04T13:27:58;17.93;;;7.87;;
4533;SDS011;2279;51.448;7.306;2023-02-04T13:30:24;26.57;;;9.37;;
4533;SDS011;2279;51.448;7.306;2023-02-04T13:32:50;20.53;;;8.50;;
4533;SDS011;2279;51.448;7.306;2023-02-04T13:35:16;26.07;;;8.13;;
4533;SDS011;2279;51.448;7.306;2023-02-04T13:37:43;21.53;;;7.90;;
4533;SDS011;2279;51.448;7.306;2023-02-04T13:40:09;23.00;;;8.07;;
4533;SDS011;2279;51.448;7.306;2023-02-04T13:42:36;20.30;;;8.40;;
4533;SDS011;2279;51.448;7.306;2023-02-04T13:45:02;26.83;;;8.57;;
4533;SDS011;2279;51.448;7.306;2023-02-04T13:47:29;23.33;;;9.03;;
4533;SDS011;2279;51.448;7.306;2023-02-04T13:49:55;20.93;;;8.57;;
4533;SDS011;2279;51.448;7.306;2023-02-04T13:52:21;16.43;;;7.20;;
4533;SDS011;2279;51.448;7.306;2023-02-04T13:54:47;13.67;;;8.97;;
4533;SDS011;2279;51.448;7.306;2023-02-04T13:57:13;29.53;;;8.37;;
4533;SDS011;2279;51.448;7.306;2023-02-04T13:59:40;23.70;;;8.40;;
4533;SDS011;2279;51.448;7.306;2023-02-04T14:02:07;20.30;;;8.60;;
4533;SDS011;2279;51.448;7.306;2023-02-04T14:04:33;23.33;;;8.70;;
4533;SDS011;2279;51.448;7.306;2023-02-04T14:06:59;16.30;;;8.43;;
4533;SDS011;2279;51.448;7.306;2023-02-04T14:09:25;24.23;;;8.97;;
4533;SDS011;2279;51.448;7.306;2023-02-04T14:11:51;21.77;;;8.17;;
4533;SDS011;2279;51.448;7.306;2023-02-04T14:14:17;22.80;;;9.67;;
4533;SDS011;2279;51.448;7.306;2023-02-04T14:16:43;25.47;;;8.70;;
4533;SDS011;2279;51.448;7.306;2023-02-04T14:19:09;24.53;;;9.43;;
4533;SDS011;2279;51.448;7.306;2023-02-04T14:21:35;23.40;;;9.23;;
4533;SDS011;2279;51.448;7.306;2023-02-04T14:24:01;18.97;;;9.80;;
4533;SDS011;2279;51.448;7.306;2023-02-04T14:26:27;22.80;;;8.80;;
4533;SDS011;2279;51.448;7.306;2023-02-04T14:28:53;29.37;;;11.20;;
4533;SDS011;2279;51.448;7.306;2023-02-04T14:31:19;22.43;;;10.00;;
4533;SDS011;2279;51.448;7.306;2023-02-04T14:33:45;20.23;;;8.33;;
4533;SDS011;2279;51.448;7.306;2023-02-04T14:36:11;23.80;;;7.97;;
4533;SDS011;2279;51.448;7.306;2023-02-04T14:38:37;20.77;;;8.90;;
4533;SDS011;2279;51.448;7.306;2023-02-04T14:41:03;24.10;;;9.80;;
4533;SDS011;2279;51.448;7.306;2023-02-04T14:43:29;26.60;;;9.80;;
4533;SDS011;2279;51.448;7.306;2023-02-04T14:46:01;24.80;;;9.97;;
4533;SDS011;2279;51.448;7.306;2023-02-04T14:48:26;17.57;;;8.93;;
4533;SDS011;2279;51.448;7.306;2023-02-04T14:50:52;19.73;;;9.27;;
4533;SDS011;2279;51.448;7.306;2023-02-04T14:53:18;20.00;;;9.30;;
4533;SDS011;2279;51.448;7.306;2023-02-04T14:55:44;30.13;;;10.07;;
4533;SDS011;2279;51.448;7.306;2023-02-04T14:58:10;22.30;;;9.70;;
4533;SDS011;2279;51.448;7.306;2023-02-04T15:00:36;17.83;;;8.57;;
4533;SDS011;2279;51.448;7.306;2023-02-04T15:03:02;24.37;;;8.80;;
4533;SDS011;2279;51.448;7.306;2023-02-04T15:05:28;28.97;;;9.47;;
4533;SDS011;2279;51.448;7.306;2023-02-04T15:07:54;23.70;;;9.73;;
4533;SDS011;2279;51.448;7.306;2023-02-04T15:10:20;28.30;;;9.30;;
4533;SDS011;2279;51.448;7.306;2023-02-04T15:12:48;20.17;;;9.40;;
4533;SDS011;2279;51.448;7.306;2023-02-04T15:15:14;17.27;;;7.70;;